Accueil
METAR-TAF:

METAR-TAF

Aéroports :

Aéroport de l'île de Chios

Chios, Grèce

latitude: 38-20N, longitude: 026-08E, altitude: 5 m

Observation

Le bulletin a été fait il y a 39 minutes, à 04:50 UTC
Vent calme
Température 21°C
Humidité 88%
Pression 1011 hPa
Visibilité 10 km ou plus
Quelques nuages à une hauteur de 1800 ft

METAR: LGHI 220450Z 00000KT 9999 FEW018 21/19 Q1011

Heure: 08:29 (05:29 UTC)

Prévision

Le bulletin a été fait il y a 3 heures et 29 minutes, à 02:00 UTC
Prévision valable du 22 à 03 UTC au 22 à 12 UTC
Vent 10 kt de sud-ouest
Visibilité 10 km ou plus
Quelques nuages à une hauteur de 2000 ft
Probabilité 30% :
Temporairement
du 22 à 03 UTC au 22 à 12 UTC
Visibilité: 5000 m
Quelques nuages à une hauteur de 1800 ft, Cumulonimbus.
Nuages épars à une hauteur de 2000 ft
Nuages fragmentés à une hauteur de 3500 ft
orage, pluie

TAF: LGHI 220200Z 2203/2212 23010KT 9999 FEW020 PROB30 TEMPO 2203/2212 5000 TSRA FEW018CB SCT020 BKN035

Observations et prévisions météorologiques de plus de 4000 aéroports (messages METAR et TAF).

Les stations disponibles sont représentées par des disques jaunes et rouges sur la carte.

Passer la souris dessus pour voir le nom de la station.

Cliquer dessus pour voir les observations et prévisions météorologiques.

Pour changer de carte: cliquez sur les boutons verts avec une croix noire pour zoomer, sur le bouton vert avec un tiret pour effectuer un zoom arrière, ou sur les flèches vertes pour les cartes adjacentes.


METAR-TAF: